Time,TemperatureF,DewpointF,PressureIn,WindDirection,WindDirectionDegrees,WindSpeedMPH,WindSpeedGustMPH,Humidity,HourlyPrecipIn,Conditions,Clouds,dailyrainin,SoftwareType,DateUTC
2013-05-31 00:00:00,54.4,54.1,29.93,SSE,147,0.0,0.0,99,0.00,,,0.00,Wunderground v.1.13,2013-05-31 04:00:00,
2013-05-31 00:30:00,53.8,53.2,29.93,SSE,147,0.0,0.0,98,0.00,,,0.00,Wunderground v.1.13,2013-05-31 04:30:00,
2013-05-31 01:00:00,54.1,53.8,29.93,SSE,147,0.0,0.0,99,0.00,,,0.00,Wunderground v.1.13,2013-05-31 05:00:00,
2013-05-31 01:30:00,55.1,55.1,29.93,SSE,147,0.0,0.0,100,0.00,,,0.00,Wunderground v.1.13,2013-05-31 05:30:00,
2013-05-31 02:00:00,57.5,57.5,29.93,NW,324,0.0,0.0,100,0.00,,,0.00,Wunderground v.1.13,2013-05-31 06:00:00,
2013-05-31 02:30:00,58.8,58.8,29.93,NNE,15,0.0,0.0,100,0.00,,,0.00,Wunderground v.1.13,2013-05-31 06:30:00,
2013-05-31 03:00:00,58.3,58.0,29.92,NNE,20,0.0,0.0,99,0.00,,,0.00,Wunderground v.1.13,2013-05-31 07:00:00,
2013-05-31 03:30:00,58.2,57.9,29.92,NNE,20,0.0,0.0,99,0.00,,,0.00,Wunderground v.1.13,2013-05-31 07:30:00,
2013-05-31 04:00:00,56.5,55.7,29.91,NNE,20,0.0,0.0,97,0.00,,,0.00,Wunderground v.1.13,2013-05-31 08:00:00,
2013-05-31 04:30:00,56.1,55.5,29.91,NNE,20,0.0,0.0,98,0.00,,,0.00,Wunderground v.1.13,2013-05-31 08:30:00,
2013-05-31 05:00:00,56.1,55.8,29.90,NNE,20,0.0,0.0,99,0.00,,,0.00,Wunderground v.1.13,2013-05-31 09:00:00,
2013-05-31 05:30:00,56.6,56.3,29.90,NNE,20,0.0,0.0,99,0.00,,,0.00,Wunderground v.1.13,2013-05-31 09:30:00,
2013-05-31 06:00:00,56.8,56.5,29.90,NNE,20,0.0,0.0,99,0.00,,,0.00,Wunderground v.1.13,2013-05-31 10:00:00,
2013-05-31 06:30:00,58.2,58.2,29.89,NNE,20,0.0,0.0,100,0.00,,,0.00,Wunderground v.1.13,2013-05-31 10:30:00,
2013-05-31 07:00:00,61.6,61.6,29.89,NNE,20,0.0,0.0,100,0.00,,,0.00,Wunderground v.1.13,2013-05-31 11:00:00,
2013-05-31 07:30:00,65.3,62.6,29.90,SE,136,1.0,1.0,91,0.00,,,0.00,Wunderground v.1.13,2013-05-31 11:30:00,
2013-05-31 08:00:00,68.1,62.7,29.88,NE,44,2.0,2.0,83,0.00,,,0.00,Wunderground v.1.13,2013-05-31 12:00:00,
2013-05-31 08:30:00,70.7,63.9,29.88,NNE,21,2.0,2.0,79,0.00,,,0.00,Wunderground v.1.13,2013-05-31 12:30:00,
2013-05-31 09:00:00,71.2,64.0,29.88,ENE,71,2.0,5.0,78,0.00,,,0.00,Wunderground v.1.13,2013-05-31 13:00:00,
2013-05-31 09:30:00,74.2,65.8,29.87,ENE,76,3.0,3.0,75,0.00,,,0.00,Wunderground v.1.13,2013-05-31 13:30:00,
2013-05-31 10:00:00,76.8,66.3,29.85,North,355,3.0,3.0,70,0.00,,,0.00,Wunderground v.1.13,2013-05-31 14:00:00,
2013-05-31 10:30:00,78.4,66.5,29.85,NNE,17,3.0,3.0,67,0.00,,,0.00,Wunderground v.1.13,2013-05-31 14:30:00,
2013-05-31 11:00:00,79.7,66.4,29.84,SE,125,3.0,3.0,64,0.00,,,0.00,Wunderground v.1.13,2013-05-31 15:00:00,
2013-05-31 11:30:00,81.7,66.0,29.82,SE,138,5.0,5.0,59,0.00,,,0.00,Wunderground v.1.13,2013-05-31 15:30:00,
2013-05-31 12:00:00,83.3,66.5,29.81,SE,144,5.0,5.0,57,0.00,,,0.00,Wunderground v.1.13,2013-05-31 16:00:00,
2013-05-31 12:30:00,82.6,65.8,29.80,South,170,3.0,3.0,57,0.00,,,0.00,Wunderground v.1.13,2013-05-31 16:30:00,
2013-05-31 13:00:00,81.5,67.2,29.79,ESE,109,1.0,1.0,62,0.00,,,0.00,Wunderground v.1.13,2013-05-31 17:00:00,
2013-05-31 13:30:00,84.5,63.8,29.78,East,90,4.0,8.0,50,0.00,,,0.00,Wunderground v.1.13,2013-05-31 17:30:00,
2013-05-31 14:00:00,86.0,65.8,29.76,SSE,147,3.0,3.0,51,0.00,,,0.00,Wunderground v.1.13,2013-05-31 18:00:00,
2013-05-31 14:30:00,77.0,71.1,29.76,ESE,117,0.0,0.0,82,0.04,,,0.05,Wunderground v.1.13,2013-05-31 18:30:00,
2013-05-31 15:00:00,70.9,68.1,29.78,ENE,71,1.0,2.0,91,0.07,,,0.16,Wunderground v.1.13,2013-05-31 19:00:00,
2013-05-31 15:30:00,73.2,70.1,29.76,NNE,13,0.0,0.0,90,0.00,,,0.16,Wunderground v.1.13,2013-05-31 19:30:00,
2013-05-31 16:00:00,76.0,71.5,29.75,ENE,76,0.0,0.0,86,0.00,,,0.16,Wunderground v.1.13,2013-05-31 20:00:00,
2013-05-31 16:30:00,77.6,70.2,29.74,ENE,77,0.0,0.0,78,0.00,,,0.16,Wunderground v.1.13,2013-05-31 20:30:00,
2013-05-31 17:00:00,76.7,70.8,29.73,ENE,71,0.0,0.0,82,0.00,,,0.16,Wunderground v.1.13,2013-05-31 21:00:00,
2013-05-31 17:30:00,74.2,70.7,29.75,ENE,71,0.0,0.0,89,0.00,,,0.16,Wunderground v.1.13,2013-05-31 21:30:00,
2013-05-31 19:00:00,64.6,63.1,29.80,NE,55,1.0,1.0,95,0.08,,,0.46,Wunderground v.1.13,2013-05-31 23:00:00,
2013-05-31 19:30:00,64.2,63.0,29.81,East,88,1.0,1.0,96,0.00,,,0.47,Wunderground v.1.13,2013-05-31 23:30:00,
2013-05-31 20:00:00,64.4,63.5,29.82,NNE,13,1.0,1.0,97,0.00,,,0.48,Wunderground v.1.13,2013-06-01 00:00:00,
2013-05-31 20:30:00,64.5,63.6,29.82,NNE,22,1.0,1.0,97,0.07,,,0.52,Wunderground v.1.13,2013-06-01 00:30:00,
2013-05-31 21:00:00,63.7,62.8,29.84,ESE,111,0.0,0.0,97,0.00,,,0.52,Wunderground v.1.13,2013-06-01 01:00:00,
2013-05-31 21:30:00,62.9,62.3,29.84,ESE,111,0.0,0.0,98,0.00,,,0.52,Wunderground v.1.13,2013-06-01 01:30:00,
2013-05-31 22:00:00,62.6,62.0,29.84,ESE,111,0.0,0.0,98,0.00,,,0.52,Wunderground v.1.13,2013-06-01 02:00:00,
2013-05-31 22:30:00,63.1,62.8,29.85,East,93,0.0,0.0,99,0.00,,,0.52,Wunderground v.1.13,2013-06-01 02:30:00,
2013-05-31 23:00:00,63.2,62.9,29.85,NE,56,0.0,0.0,99,0.00,,,0.52,Wunderground v.1.13,2013-06-01 03:00:00,
2013-05-31 23:30:00,63.2,62.9,29.85,NNE,19,0.0,0.0,99,0.00,,,0.52,Wunderground v.1.13,2013-06-01 03:30:00,